Saint Edward, Nebraska
Current Conditions -  °F | °C
As of 11:35 PM on Sunday 21 Dec 2014 (Local Time) from KBVN Reporting Station
Haze Haze  
Wind Chill: 34°   Ceiling: 400
Heat Index: 40°   Visibility: 4mi
Dew Point: 38°   Wind: 10mph
Humidity: 91%   Direction: 170°S
Pressure: 29.53"   Gusts: NA
Location:  41.57°N, 97.87°W
Report Text: KBVN 220535Z AUTO 17009KT 4SM BR OVC004 05/03 A2953 RMK AO2 T00460033
Loading
Personal Weather Stations






























Interactive Weather Map New forecast layout! Learn more

10-Day Weather Forecast

Advertisements
Track Severe Weather on mobile